Weather History for KLCK - January, 2013

Change the Weather History Date:

Monday, January 7, 2013

  Actual Average Record
Temperature  
Mean Temperature 32 °F -  
Max Temperature 37 °F 37 °F 69 °F (2008)
Min Temperature 27 °F 24 °F -5 °F (2014)
Degree Days  
Heating Degree Days 33    
Moisture  
Dew Point 25 °F    
Average Humidity 74    
Maximum Humidity 83    
Minimum Humidity 61    
Precipitation  
Precipitation 0.00 in - - ()
Sea Level Pressure  
Sea Level Pressure 30.36 in    
Wind  
Wind Speed 4 mph (South)    
Max Wind Speed 8 mph    
Max Gust Speed -    
Visibility 7 miles    
Events      
Averages and records for this station are not official NWS values.
T = Trace of Precipitation, MM = Missing Value Source: NWS Daily Summary

Daily Weather History Graph

Daily Weather History Graph

Search for Another Location

Airport or City:

Trip Planner

Search our weather history database for the weather conditions in past years. The results will help you decide how hot, cold, wet, or windy it might be!

Date:

Astronomy

Jan. 07, 2013 Rise Set
Actual Time 7:53 AM EST 5:23 PM EST
Civil Twilight 7:23 AM EST 5:53 PM EST
Nautical Twilight 6:49 AM EST 6:27 PM EST
Astronomical Twilight 6:16 AM EST 6:59 PM EST
Moon 3:15 AM EST (1/7) 1:33 PM EST (1/7)
Length of Visible Light 10h 30m
Length of Day
9h 30m
Waning Crescent, 23% of the Moon is Illuminated
Jan 7
Waning Crescent
Jan 11
New
Jan 18
First Quarter
Jan 26
Full
Feb 3
Last Quarter

Hourly Weather History & Observations

Time (EST) Temp. Windchill Dew Point Humidity Pressure Visibility Wind Dir Wind Speed Gust Speed Precip Events Conditions
12:35 AM 30.0 °F 25.2 °F 23.9 °F 78% 30.33 in 4.0 mi WSW 4.6 mph - N/A   Haze
12:55 AM 30.0 °F 26.5 °F 23.9 °F 78% 30.33 in 4.0 mi WSW 3.5 mph - N/A   Haze
1:15 AM 30.0 °F - 23.9 °F 78% 30.33 in 4.0 mi Calm Calm - N/A   Haze
1:35 AM 30.0 °F - 24.1 °F 79% 30.33 in 4.0 mi Calm Calm - N/A   Haze
1:55 AM 30.2 °F - 24.4 °F 79% 30.33 in 5.0 mi Calm Calm - N/A   Haze
2:15 AM 30.2 °F - 24.4 °F 79% 30.34 in 5.0 mi Calm Calm - N/A   Haze
2:35 AM 30.4 °F - 24.4 °F 79% 30.34 in 5.0 mi Calm Calm - N/A   Haze
2:55 AM 30.4 °F - 24.6 °F 79% 30.35 in 5.0 mi Calm Calm - N/A   Haze
3:15 AM 30.2 °F 26.7 °F 24.8 °F 80% 30.35 in 4.0 mi South 3.5 mph - N/A   Haze
3:35 AM 30.2 °F 24.3 °F 24.8 °F 80% 30.36 in 5.0 mi SSW 5.8 mph - N/A   Haze
3:55 AM 30.6 °F 25.8 °F 25.0 °F 80% 30.36 in 5.0 mi SSW 4.6 mph - N/A   Haze
4:15 AM 30.4 °F 25.6 °F 25.0 °F 80% 30.37 in 5.0 mi SW 4.6 mph - N/A   Haze
4:35 AM 30.2 °F 26.7 °F 25.2 °F 82% 30.37 in 5.0 mi SSW 3.5 mph - N/A   Haze
4:55 AM 30.2 °F - 25.2 °F 82% 30.37 in 5.0 mi Calm Calm - N/A   Haze
5:15 AM 30.2 °F - 25.2 °F 82% 30.38 in 5.0 mi Calm Calm - N/A   Haze
5:35 AM 30.2 °F - 25.0 °F 81% 30.38 in 5.0 mi Calm Calm - N/A   Haze
5:55 AM 30.2 °F 26.7 °F 25.0 °F 81% 30.38 in 5.0 mi South 3.5 mph - N/A   Haze
6:15 AM 29.8 °F 24.9 °F 24.8 °F 81% 30.38 in 4.0 mi South 4.6 mph - N/A   Overcast
6:35 AM 29.3 °F 25.6 °F 24.8 °F 83% 30.40 in 4.0 mi South 3.5 mph - N/A   Overcast
6:55 AM 29.8 °F 26.3 °F 24.8 °F 81% 30.41 in 5.0 mi SW 3.5 mph - N/A   Haze
7:35 AM 30.0 °F 25.2 °F 24.8 °F 81% 30.43 in 5.0 mi SW 4.6 mph - N/A   Haze
7:55 AM 30.0 °F 25.2 °F 24.8 °F 81% 30.43 in 4.0 mi SSW 4.6 mph - N/A   Haze
8:15 AM 30.0 °F 24.1 °F 25.2 °F 82% 30.45 in 5.0 mi SW 5.8 mph - N/A   Haze
8:35 AM 30.2 °F 24.3 °F 25.2 °F 82% 30.45 in 5.0 mi SSW 5.8 mph - N/A   Haze
8:55 AM 30.6 °F 24.7 °F 25.2 °F 80% 30.46 in 5.0 mi South 5.8 mph - N/A   Haze
9:15 AM 30.9 °F 25.2 °F 25.3 °F 80% 30.47 in 5.0 mi SSW 5.8 mph - N/A   Haze
9:35 AM 31.1 °F 24.5 °F 25.3 °F 79% 30.47 in 5.0 mi SSW 6.9 mph - N/A   Haze
9:55 AM 31.5 °F 25.8 °F 25.3 °F 78% 30.47 in 5.0 mi SSW 5.8 mph - N/A   Haze
10:15 AM 31.8 °F 25.4 °F 25.5 °F 78% 30.48 in 5.0 mi SSW 6.9 mph - N/A   Haze
10:35 AM 32.0 °F 27.5 °F 25.5 °F 77% 30.48 in 5.0 mi SSW 4.6 mph - N/A   Haze
10:55 AM 32.5 °F 28.1 °F 25.5 °F 75% 30.47 in 5.0 mi SW 4.6 mph - N/A   Haze
11:15 AM 33.4 °F 28.1 °F 25.9 °F 74% 30.46 in 7.0 mi South 5.8 mph - N/A   Clear
11:35 AM 33.8 °F 28.6 °F 25.9 °F 73% 30.45 in 7.0 mi SSW 5.8 mph - N/A   Clear
11:55 AM 34.5 °F 30.4 °F 26.1 °F 71% 30.44 in 7.0 mi SSW 4.6 mph - N/A   Clear
12:15 PM 34.9 °F 30.8 °F 25.7 °F 69% 30.43 in 7.0 mi South 4.6 mph - N/A   Clear
12:35 PM 35.1 °F 30.1 °F 25.5 °F 68% 30.41 in 7.0 mi SSW 5.8 mph - N/A   Scattered Clouds
12:55 PM 34.7 °F 28.1 °F 25.2 °F 68% 30.40 in 7.0 mi SSE 8.1 mph - N/A   Mostly Cloudy
1:15 PM 34.7 °F 28.1 °F 25.3 °F 69% 30.40 in 10.0 mi SSE 8.1 mph - N/A   Overcast
1:35 PM 35.1 °F 31.0 °F 24.8 °F 66% 30.39 in 10.0 mi South 4.6 mph - N/A   Overcast
2:15 PM 36.1 °F 29.9 °F 24.4 °F 63% 30.38 in 10.0 mi South 8.1 mph - N/A   Scattered Clouds
2:35 PM 36.3 °F 31.6 °F 24.4 °F 62% 30.37 in 10.0 mi South 5.8 mph - N/A   Clear
2:55 PM 36.7 °F 32.0 °F 25.2 °F 63% 30.37 in 10.0 mi South 5.8 mph - N/A   Clear
3:15 PM 37.2 °F 34.7 °F 25.3 °F 62% 30.36 in 10.0 mi South 3.5 mph - N/A   Clear
3:35 PM 37.4 °F 32.8 °F 25.3 °F 62% 30.35 in 10.0 mi SSE 5.8 mph - N/A   Clear
3:55 PM 37.4 °F 33.8 °F 25.3 °F 62% 30.35 in 10.0 mi South 4.6 mph - N/A   Clear
4:15 PM 37.4 °F 33.8 °F 25.2 °F 61% 30.36 in 10.0 mi South 4.6 mph - N/A   Clear
4:35 PM 37.4 °F 34.9 °F 25.7 °F 63% 30.35 in 10.0 mi SSW 3.5 mph - N/A   Clear
4:55 PM 36.9 °F 34.3 °F 25.7 °F 64% 30.35 in 10.0 mi SSW 3.5 mph - N/A   Clear
5:15 PM 36.3 °F 33.7 °F 25.7 °F 65% 30.35 in 10.0 mi South 3.5 mph - N/A   Clear
5:35 PM 34.7 °F 30.6 °F 25.3 °F 69% 30.33 in 10.0 mi SSE 4.6 mph - N/A   Clear
6:15 PM 33.6 °F 29.4 °F 24.8 °F 70% 30.33 in 10.0 mi SSE 4.6 mph - N/A   Clear
6:35 PM 32.9 °F 26.7 °F 24.8 °F 72% 30.32 in 10.0 mi SE 6.9 mph - N/A   Clear
6:55 PM 32.5 °F 28.1 °F 24.4 °F 72% 30.31 in 10.0 mi SE 4.6 mph - N/A   Clear
7:15 PM 32.4 °F 26.9 °F 24.3 °F 72% 30.31 in 10.0 mi SSE 5.8 mph - N/A   Clear
7:35 PM 32.0 °F 25.6 °F 23.7 °F 71% 30.30 in 10.0 mi SSE 6.9 mph - N/A   Clear
7:55 PM 31.8 °F 24.6 °F 23.4 °F 71% 30.30 in 10.0 mi SE 8.1 mph - N/A   Clear
8:15 PM 32.0 °F 26.4 °F 23.5 °F 71% 30.30 in 10.0 mi SSE 5.8 mph - N/A   Clear
8:35 PM 31.5 °F 24.9 °F 23.2 °F 71% 30.30 in 10.0 mi SSE 6.9 mph - N/A   Clear
8:55 PM 31.5 °F 25.8 °F 23.4 °F 72% 30.28 in 10.0 mi SE 5.8 mph - N/A   Clear
9:15 PM 31.6 °F 27.0 °F 23.4 °F 71% 30.28 in 10.0 mi SE 4.6 mph - N/A   Clear
9:35 PM 31.5 °F 25.8 °F 23.2 °F 71% 30.27 in 10.0 mi SE 5.8 mph - N/A   Clear
9:55 PM 31.1 °F - 23.0 °F 72% 30.26 in 10.0 mi Calm Calm - N/A   Clear
10:15 PM 30.6 °F - 23.0 °F 74% 30.26 in 10.0 mi Calm Calm - N/A   Clear
10:35 PM 29.7 °F 26.1 °F 22.6 °F 75% 30.26 in 7.0 mi ESE 3.5 mph - N/A   Clear
10:55 PM 27.0 °F - 21.7 °F 81% 30.26 in 7.0 mi Calm Calm - N/A   Clear
11:15 PM 29.5 °F - 22.8 °F 76% 30.27 in 7.0 mi Calm Calm - N/A   Clear
11:35 PM 28.0 °F 24.2 °F 21.9 °F 78% 30.27 in 7.0 mi NE 3.5 mph - N/A   Clear
11:55 PM 27.0 °F - 21.7 °F 81% 30.26 in 7.0 mi Calm Calm - N/A   Clear